createdAt,value
2018-12-21T00:02:08.246Z,98358.23
2018-12-21T00:04:39.801Z,98346.39
2018-12-21T00:07:11.572Z,98347.92
2018-12-21T00:09:44.240Z,98340.22
2018-12-21T00:12:14.823Z,98342.22
2018-12-21T00:14:46.248Z,98334.63
2018-12-21T00:17:17.746Z,98342.50
2018-12-21T00:19:49.243Z,98341.04
2018-12-21T00:22:19.905Z,98338.67
2018-12-21T00:24:50.968Z,98335.92
2018-12-21T00:27:21.569Z,98323.77
2018-12-21T00:29:52.645Z,98323.57
2018-12-21T00:32:29.838Z,98325.78
2018-12-21T00:35:05.780Z,98329.75
2018-12-21T00:37:42.490Z,98324.41
2018-12-21T00:40:18.573Z,98324.48
2018-12-21T00:42:55.289Z,98322.47
2018-12-21T00:48:25.998Z,98327.73
2018-12-21T00:50:57.830Z,98322.47
2018-12-21T00:53:30.491Z,98325.77
2018-12-21T00:56:02.448Z,98328.78
2018-12-21T00:58:35.778Z,98331.92
2018-12-21T01:01:07.878Z,98326.45
2018-12-21T01:03:40.815Z,98318.98
2018-12-21T01:06:14.501Z,98308.64
2018-12-21T01:08:46.301Z,98309.08
2018-12-21T01:11:17.653Z,98306.30
2018-12-21T01:13:48.295Z,98310.88
2018-12-21T01:16:18.898Z,98305.52
2018-12-21T01:18:49.916Z,98302.76
2018-12-21T01:21:21.097Z,98299.25
2018-12-21T01:23:51.655Z,98305.83
2018-12-21T01:26:22.925Z,98313.37
2018-12-21T01:28:53.508Z,98300.47
2018-12-21T01:31:25.718Z,98299.09
2018-12-21T01:33:56.263Z,98299.17
2018-12-21T01:36:27.842Z,98298.87
2018-12-21T01:38:58.478Z,98303.70
2018-12-21T01:41:29.693Z,98305.00
2018-12-21T01:44:00.821Z,98303.47
2018-12-21T01:46:32.133Z,98310.05
2018-12-21T01:49:06.471Z,98303.17
2018-12-21T01:51:46.896Z,98304.47
2018-12-21T01:54:12.421Z,98305.84
2018-12-21T01:56:44.494Z,98309.55
2018-12-21T01:59:15.042Z,98306.87
2018-12-21T02:01:48.738Z,98306.87
2018-12-21T02:04:20.848Z,98300.87
2018-12-21T02:06:54.136Z,98308.09
2018-12-21T02:09:25.613Z,98308.92
2018-12-21T02:11:56.277Z,98306.33
2018-12-21T02:14:27.942Z,98304.88
2018-12-21T02:16:58.549Z,98297.41
2018-12-21T02:19:29.165Z,98294.81
2018-12-21T02:21:59.830Z,98292.22
2018-12-21T02:24:31.326Z,98288.56
2018-12-21T02:27:01.926Z,98290.77
2018-12-21T02:29:34.003Z,98283.43
2018-12-21T02:32:05.210Z,98282.12
2018-12-21T02:34:36.392Z,98279.97
2018-12-21T02:37:08.160Z,98281.27
2018-12-21T02:39:40.297Z,98265.27
2018-12-21T02:42:11.149Z,98263.11
2018-12-21T02:44:41.747Z,98266.00
2018-12-21T02:47:13.293Z,98261.04
2018-12-21T02:49:44.061Z,98261.70
2018-12-21T02:52:16.664Z,98265.90
2018-12-21T02:54:48.798Z,98265.34
2018-12-21T02:57:19.391Z,98272.02
2018-12-21T02:59:53.264Z,98261.64
2018-12-21T03:02:24.442Z,98253.33
2018-12-21T03:04:55.663Z,98249.63
2018-12-21T03:07:27.950Z,98240.70
2018-12-21T03:09:58.513Z,98236.38
2018-12-21T03:12:29.534Z,98231.84
2018-12-21T03:15:01.242Z,98220.54
2018-12-21T03:17:32.047Z,98207.91
2018-12-21T03:20:03.990Z,98202.46
2018-12-21T03:22:35.525Z,98198.48
2018-12-21T03:25:07.722Z,98197.27
2018-12-21T03:27:39.838Z,98197.27
2018-12-21T03:30:12.504Z,98186.80
2018-12-21T03:32:44.531Z,98184.29
2018-12-21T03:35:16.778Z,98188.31
2018-12-21T03:37:49.855Z,98178.84
2018-12-21T03:40:22.451Z,98175.03
2018-12-21T03:42:53.801Z,98171.43
2018-12-21T03:45:28.762Z,98164.77
2018-12-21T03:48:00.901Z,98151.78
2018-12-21T03:50:33.651Z,98145.41
2018-12-21T03:53:04.719Z,98149.42
2018-12-21T03:55:36.822Z,98134.88
2018-12-21T03:58:07.353Z,98130.27
2018-12-21T04:00:38.350Z,98110.47
2018-12-21T04:03:10.325Z,98106.05
2018-12-21T04:05:42.277Z,98102.50
2018-12-21T04:08:12.818Z,98101.41
2018-12-21T04:10:44.765Z,98098.45
2018-12-21T04:13:15.578Z,98101.22
2018-12-21T04:15:46.605Z,98100.69
2018-12-21T04:18:17.402Z,98104.93
2018-12-21T04:20:48.007Z,98097.91
2018-12-21T04:23:18.891Z,98090.75
2018-12-21T04:25:49.473Z,98083.05
2018-12-21T04:28:20.510Z,98075.45
2018-12-21T04:30:51.104Z,98081.38
2018-12-21T04:33:21.684Z,98079.91
2018-12-21T04:35:53.293Z,98086.50
2018-12-21T04:38:23.868Z,98099.41
2018-12-21T04:40:54.447Z,98096.05
2018-12-21T04:43:25.011Z,98093.72
2018-12-21T04:45:56.012Z,98096.61
2018-12-21T04:48:26.585Z,98111.82
2018-12-21T04:50:57.131Z,98102.46
2018-12-21T04:53:27.843Z,98096.70
2018-12-21T04:55:58.438Z,98101.52
2018-12-21T04:58:29.081Z,98097.80
2018-12-21T05:01:00.031Z,98096.41
2018-12-21T05:03:30.841Z,98092.98
2018-12-21T05:06:01.513Z,98098.37
2018-12-21T05:08:32.054Z,98094.94
2018-12-21T05:11:02.624Z,98097.45
2018-12-21T05:13:33.178Z,98095.40
2018-12-21T05:16:04.178Z,98094.84
2018-12-21T05:18:34.766Z,98087.62
2018-12-21T05:21:06.279Z,98086.48
2018-12-21T05:23:37.145Z,98081.01
2018-12-21T05:26:07.736Z,98073.41
2018-12-21T05:28:38.425Z,98069.12
2018-12-21T05:31:09.021Z,98076.19
2018-12-21T05:33:39.862Z,98071.73
2018-12-21T05:36:10.421Z,98070.98
2018-12-21T05:38:41.314Z,98068.28
2018-12-21T05:41:12.460Z,98064.67
2018-12-21T05:43:44.346Z,98066.32
2018-12-21T05:46:14.906Z,98064.64
2018-12-21T05:48:48.283Z,98060.55
2018-12-21T05:51:18.826Z,98057.50
2018-12-21T05:53:53.005Z,98044.94
2018-12-21T05:56:23.957Z,98048.41
2018-12-21T05:58:59.161Z,98043.11
2018-12-21T06:01:29.737Z,98028.61
2018-12-21T06:04:02.065Z,98020.63
2018-12-21T06:06:35.346Z,98027.50
2018-12-21T06:09:09.204Z,98016.88
2018-12-21T06:11:43.816Z,98012.88
2018-12-21T06:14:14.354Z,98018.17
2018-12-21T06:16:45.576Z,98012.59
2018-12-21T06:19:19.046Z,98005.34
2018-12-21T06:21:51.665Z,98004.58
2018-12-21T06:24:23.518Z,97999.80
2018-12-21T06:26:55.093Z,97997.77
2018-12-21T06:29:25.643Z,97992.28
2018-12-21T06:33:35.168Z,97982.16
2018-12-21T06:36:12.169Z,97978.48
2018-12-21T06:38:43.933Z,97962.86
2018-12-21T06:41:14.499Z,97956.28
2018-12-21T06:43:45.876Z,97955.98
2018-12-21T06:46:16.473Z,97956.36
2018-12-21T06:48:49.030Z,97962.19
2018-12-21T06:51:24.378Z,97954.08
2018-12-21T06:54:02.849Z,97956.58
2018-12-21T06:56:34.020Z,97952.95
2018-12-21T06:59:05.035Z,97950.67
2018-12-21T07:01:36.607Z,97941.75
2018-12-21T07:04:07.182Z,97941.89
2018-12-21T07:06:37.786Z,97930.08
2018-12-21T07:09:10.282Z,97931.78
2018-12-21T07:11:42.614Z,97931.23
2018-12-21T07:14:14.975Z,97925.95
2018-12-21T07:16:45.520Z,97928.94
2018-12-21T07:19:17.573Z,97917.61
2018-12-21T07:21:48.677Z,97914.83
2018-12-21T07:24:21.475Z,97911.05
2018-12-21T07:26:53.070Z,97903.20
2018-12-21T07:29:25.654Z,97900.31
2018-12-21T07:31:57.593Z,97886.84
2018-12-21T07:34:29.616Z,97886.79
2018-12-21T07:37:01.962Z,97873.91
2018-12-21T07:39:33.719Z,97868.18
2018-12-21T07:42:04.342Z,97859.19
2018-12-21T07:44:34.938Z,97855.10
2018-12-21T07:47:07.608Z,97855.00
2018-12-21T07:49:39.026Z,97849.91
2018-12-21T07:52:09.686Z,97853.75
2018-12-21T07:54:41.482Z,97852.45
2018-12-21T07:57:12.970Z,97854.66
2018-12-21T07:59:44.090Z,97848.88
2018-12-21T08:02:14.715Z,97847.58
2018-12-21T08:04:46.264Z,97844.36
2018-12-21T08:07:17.494Z,97843.95
2018-12-21T08:09:49.192Z,97837.78
2018-12-21T08:12:20.686Z,97841.06
2018-12-21T08:14:51.289Z,97839.34
2018-12-21T08:17:24.934Z,97840.02
2018-12-21T08:19:55.583Z,97845.30
2018-12-21T08:22:27.761Z,97825.06
2018-12-21T08:24:58.370Z,97811.05
2018-12-21T08:27:30.634Z,97822.46
2018-12-21T08:30:02.447Z,97817.45
2018-12-21T08:32:34.614Z,97816.15
2018-12-21T08:35:07.447Z,97810.52
2018-12-21T08:37:38.060Z,97798.63
2018-12-21T08:40:10.439Z,97820.06
2018-12-21T08:42:41.038Z,97800.97
2018-12-21T08:45:12.581Z,97794.66
2018-12-21T08:47:44.585Z,97785.89
2018-12-21T08:50:16.370Z,97793.14
2018-12-21T08:52:47.548Z,97780.57
2018-12-21T08:55:18.202Z,97781.30
2018-12-21T08:57:49.715Z,97779.70
2018-12-21T09:00:22.042Z,97768.09
2018-12-21T09:02:52.831Z,97775.42
2018-12-21T09:05:25.261Z,97776.89
2018-12-21T09:07:56.968Z,97762.77
2018-12-21T09:10:27.606Z,97766.17
2018-12-21T09:12:58.530Z,97776.70
2018-12-21T09:15:30.479Z,97771.98
2018-12-21T09:18:01.309Z,97760.49
2018-12-21T09:20:33.074Z,97754.20
2018-12-21T09:23:05.646Z,97756.38
2018-12-21T09:25:38.056Z,97763.77
2018-12-21T09:28:09.587Z,97762.77
2018-12-21T09:30:41.351Z,97756.27
2018-12-21T09:33:13.886Z,97759.87
2018-12-21T09:35:44.505Z,97759.50
2018-12-21T09:38:16.719Z,97742.91
2018-12-21T09:40:48.007Z,97734.18
2018-12-21T09:43:18.584Z,97729.70
2018-12-21T09:45:49.212Z,97725.77
2018-12-21T09:48:19.995Z,97713.02
2018-12-21T09:50:50.621Z,97715.30
2018-12-21T09:53:21.222Z,97704.39
2018-12-21T09:55:52.409Z,97698.84
2018-12-21T09:58:23.247Z,97682.34
2018-12-21T10:00:55.914Z,97674.47
2018-12-21T10:03:26.473Z,97666.11
2018-12-21T10:05:58.357Z,97655.84
2018-12-21T10:08:29.757Z,97664.50
2018-12-21T10:11:00.376Z,97648.57
2018-12-21T10:13:31.021Z,97636.06
2018-12-21T10:16:02.693Z,97630.75
2018-12-21T10:18:35.874Z,97629.95
2018-12-21T10:21:06.474Z,97633.86
2018-12-21T10:23:38.014Z,97633.80
2018-12-21T10:26:09.688Z,97614.13
2018-12-21T10:28:40.299Z,97615.47
2018-12-21T10:31:10.894Z,97608.59
2018-12-21T10:33:42.882Z,97604.91
2018-12-21T10:36:13.491Z,97592.53
2018-12-21T10:38:46.251Z,97596.88
2018-12-21T10:41:17.709Z,97590.31
2018-12-21T10:43:48.698Z,97578.84
2018-12-21T10:46:21.440Z,97583.22
2018-12-21T10:48:52.889Z,97585.38
2018-12-21T10:51:24.469Z,97568.09
2018-12-21T10:53:55.074Z,97569.92
2018-12-21T10:56:26.864Z,97562.81
2018-12-21T10:58:58.450Z,97543.30
2018-12-21T11:01:29.879Z,97541.99
2018-12-21T11:04:01.466Z,97552.66
2018-12-21T11:06:32.340Z,97542.25
2018-12-21T11:09:05.003Z,97544.16
2018-12-21T11:11:36.694Z,97527.71
2018-12-21T11:14:08.582Z,97544.63
2018-12-21T11:16:40.134Z,97540.02
2018-12-21T11:19:12.118Z,97535.16
2018-12-21T11:21:43.650Z,97526.19
2018-12-21T11:24:14.234Z,97527.27
2018-12-21T11:26:44.886Z,97522.95
2018-12-21T11:29:15.482Z,97516.67
2018-12-21T11:31:46.123Z,97520.58
2018-12-21T11:34:17.654Z,97523.30
2018-12-21T11:36:50.335Z,97518.31
2018-12-21T11:39:21.821Z,97516.89
2018-12-21T11:41:53.066Z,97502.36
2018-12-21T11:44:23.665Z,97506.82
2018-12-21T11:46:54.265Z,97504.22
2018-12-21T11:49:25.866Z,97499.86
2018-12-21T11:51:59.202Z,97505.66
2018-12-21T11:54:30.749Z,97496.08
2018-12-21T11:57:02.337Z,97493.02
2018-12-21T11:59:35.842Z,97489.48
2018-12-21T12:02:07.210Z,97487.84
2018-12-21T12:04:41.015Z,97484.98
2018-12-21T12:07:11.647Z,97486.69
2018-12-21T12:09:42.906Z,97477.80
2018-12-21T12:12:13.537Z,97472.36
2018-12-21T12:14:44.533Z,97472.59
2018-12-21T12:17:15.259Z,97480.64
2018-12-21T12:19:46.916Z,97485.15
2018-12-21T12:22:17.481Z,97483.38
2018-12-21T12:24:52.705Z,97488.20
2018-12-21T12:27:22.083Z,97480.28
2018-12-21T12:29:52.813Z,97476.97
2018-12-21T12:32:24.126Z,97482.55
2018-12-21T12:34:54.973Z,97472.27
2018-12-21T12:37:27.786Z,97474.16
2018-12-21T12:39:59.653Z,97476.30
2018-12-21T12:42:31.350Z,97469.67
2018-12-21T12:45:01.986Z,97462.59
2018-12-21T12:47:34.497Z,97471.97
2018-12-21T12:50:07.631Z,97473.38
2018-12-21T12:52:39.218Z,97480.47
2018-12-21T12:55:13.220Z,97476.91
2018-12-21T12:57:44.745Z,97480.58
2018-12-21T13:00:16.042Z,97473.47
2018-12-21T13:02:47.602Z,97472.03
2018-12-21T13:05:18.339Z,97465.57
2018-12-21T13:07:50.972Z,97475.17
2018-12-21T13:10:21.598Z,97473.02
2018-12-21T13:12:54.379Z,97472.16
2018-12-21T13:15:26.979Z,97472.56
2018-12-21T13:17:58.814Z,97480.60
2018-12-21T13:20:31.095Z,97482.29
2018-12-21T13:23:02.925Z,97488.20
2018-12-21T13:25:34.159Z,97480.99
2018-12-21T13:28:06.283Z,97485.13
2018-12-21T13:30:36.894Z,97483.83
2018-12-21T13:33:08.475Z,97483.35
2018-12-21T13:35:39.685Z,97489.52
2018-12-21T13:38:11.942Z,97481.95
2018-12-21T13:40:42.618Z,97474.61
2018-12-21T13:43:17.947Z,97479.58
2018-12-21T13:45:48.570Z,97481.38
2018-12-21T13:48:20.818Z,97481.70
2018-12-21T13:50:51.420Z,97491.55
2018-12-21T13:53:22.538Z,97494.85
2018-12-21T13:55:53.852Z,97494.52
2018-12-21T13:58:24.811Z,97497.71
2018-12-21T14:00:55.431Z,97488.95
2018-12-21T14:03:25.998Z,97500.21
2018-12-21T14:05:56.576Z,97494.39
2018-12-21T14:08:27.269Z,97498.91
2018-12-21T14:10:58.018Z,97506.00
2018-12-21T14:13:28.696Z,97508.97
2018-12-21T14:15:59.434Z,97512.16
2018-12-21T14:18:30.334Z,97507.64
2018-12-21T14:21:00.911Z,97511.55
2018-12-21T14:23:31.576Z,97507.52
2018-12-21T14:26:02.250Z,97506.70
2018-12-21T14:28:32.879Z,97512.39
2018-12-21T14:31:03.545Z,97509.89
2018-12-21T14:33:34.247Z,97496.29
2018-12-21T14:36:05.301Z,97502.20
2018-12-21T14:38:35.946Z,97494.86
2018-12-21T14:41:06.605Z,97495.20
2018-12-21T14:43:37.707Z,97505.75
2018-12-21T14:46:08.794Z,97497.92
2018-12-21T14:48:39.417Z,97498.77
2018-12-21T14:51:10.054Z,97502.69
2018-12-21T14:53:41.053Z,97503.39
2018-12-21T14:56:11.668Z,97509.18
2018-12-21T14:58:43.318Z,97509.31
2018-12-21T15:01:14.311Z,97508.13
2018-12-21T15:03:45.313Z,97511.68
2018-12-21T15:06:16.013Z,97531.70
2018-12-21T15:08:46.727Z,97527.45
2018-12-21T15:11:17.445Z,97535.73
2018-12-21T15:13:49.469Z,97528.64
2018-12-21T15:16:20.941Z,97533.73
2018-12-21T15:18:52.741Z,97529.92
2018-12-21T15:21:25.146Z,97542.84
2018-12-21T15:23:56.485Z,97536.08
2018-12-21T15:26:27.701Z,97545.43
2018-12-21T15:29:00.218Z,97545.70
2018-12-21T15:31:31.826Z,97546.87
2018-12-21T15:34:02.413Z,97547.70
2018-12-21T15:36:35.469Z,97540.57
2018-12-21T15:39:07.983Z,97549.13
2018-12-21T15:41:40.020Z,97549.47
2018-12-21T15:44:11.371Z,97558.02
2018-12-21T15:46:42.710Z,97557.05
2018-12-21T15:49:14.347Z,97562.15
2018-12-21T15:51:47.001Z,97573.20
2018-12-21T15:54:19.147Z,97568.92
2018-12-21T15:56:50.760Z,97562.88
2018-12-21T15:59:22.241Z,97557.66
2018-12-21T16:01:52.983Z,97557.78
2018-12-21T16:04:23.618Z,97558.12
2018-12-21T16:06:56.334Z,97546.95
2018-12-21T16:09:29.108Z,97558.94
2018-12-21T16:12:00.395Z,97560.13
2018-12-21T16:14:34.703Z,97556.09
2018-12-21T16:17:05.650Z,97552.42
2018-12-21T16:19:37.220Z,97569.27
2018-12-21T16:22:08.546Z,97573.06
2018-12-21T16:24:40.901Z,97569.27
2018-12-21T16:27:11.525Z,97568.78
2018-12-21T16:29:42.854Z,97574.94
2018-12-21T16:32:14.621Z,97572.81
2018-12-21T16:34:45.197Z,97566.87
2018-12-21T16:37:16.437Z,97570.55
2018-12-21T16:39:49.415Z,97568.50
2018-12-21T16:42:20.046Z,97565.77
2018-12-21T16:44:50.703Z,97565.53
2018-12-21T16:47:22.522Z,97572.88
2018-12-21T16:49:53.151Z,97566.95
2018-12-21T16:52:27.889Z,97582.73
2018-12-21T16:54:59.145Z,97569.20
2018-12-21T16:57:32.641Z,97577.27
2018-12-21T17:00:06.966Z,97577.39
2018-12-21T17:02:38.141Z,97589.39
2018-12-21T17:05:11.442Z,97591.15
2018-12-21T17:07:42.974Z,97591.75
2018-12-21T17:10:23.412Z,97592.45
2018-12-21T17:12:54.169Z,97589.59
2018-12-21T17:15:25.755Z,97596.94
2018-12-21T17:17:56.813Z,97607.75
2018-12-21T17:20:27.841Z,97609.63
2018-12-21T17:22:58.522Z,97610.81
2018-12-21T17:25:31.764Z,97620.33
2018-12-21T17:28:05.190Z,97616.73
2018-12-21T17:30:36.590Z,97620.53
2018-12-21T17:33:07.670Z,97616.48
2018-12-21T17:35:38.292Z,97617.42
2018-12-21T17:38:10.255Z,97623.02
2018-12-21T17:40:43.530Z,97625.50
2018-12-21T17:43:15.199Z,97627.86
2018-12-21T17:45:45.916Z,97631.05
2018-12-21T17:48:17.947Z,97637.26
2018-12-21T17:50:48.535Z,97649.10
2018-12-21T17:53:19.458Z,97644.11
2018-12-21T17:55:52.067Z,97661.59
2018-12-21T17:58:24.221Z,97664.78
2018-12-21T18:00:57.554Z,97665.39
2018-12-21T18:03:42.137Z,97665.64
2018-12-21T18:06:13.425Z,97669.92
2018-12-21T18:08:44.218Z,97665.27
2018-12-21T18:11:16.257Z,97679.52
2018-12-21T18:13:48.284Z,97687.85
2018-12-21T18:16:20.858Z,97688.79
2018-12-21T18:18:54.995Z,97682.75
2018-12-21T18:21:26.662Z,97683.69
2018-12-21T18:23:59.034Z,97678.00
2018-12-21T18:26:38.434Z,97672.78
2018-12-21T18:29:04.868Z,97687.23
2018-12-21T18:31:51.761Z,97678.70
2018-12-21T18:34:32.736Z,97682.38
2018-12-21T18:37:06.838Z,97680.95
2018-12-21T18:39:38.005Z,97680.62
2018-12-21T18:42:08.693Z,97674.54
2018-12-21T18:44:39.358Z,97681.31
2018-12-21T18:47:09.940Z,97684.30
2018-12-21T18:49:40.590Z,97678.34
2018-12-21T18:52:11.230Z,97681.20
2018-12-21T18:54:41.927Z,97668.01
2018-12-21T18:57:16.938Z,97667.88
2018-12-21T18:59:47.719Z,97655.27
2018-12-21T19:02:18.434Z,97647.34
2018-12-21T19:04:49.304Z,97651.51
2018-12-21T19:07:22.112Z,97648.77
2018-12-21T19:09:53.223Z,97635.70
2018-12-21T19:12:23.950Z,97641.39
2018-12-21T19:14:55.036Z,97648.28
2018-12-21T19:17:25.701Z,97659.10
2018-12-21T19:19:56.662Z,97650.20
2018-12-21T19:22:27.430Z,97653.39
2018-12-21T19:24:58.129Z,97660.78
2018-12-21T19:27:28.738Z,97661.52
2018-12-21T19:29:59.505Z,97654.86
2018-12-21T19:32:30.221Z,97654.98
2018-12-21T19:35:01.038Z,97654.41
2018-12-21T19:37:31.701Z,97652.03
2018-12-21T19:40:02.342Z,97651.80
2018-12-21T19:42:33.103Z,97652.52
2018-12-21T19:45:04.338Z,97650.27
2018-12-21T19:47:34.987Z,97651.45
2018-12-21T19:50:07.431Z,97644.72
2018-12-21T19:52:38.052Z,97646.84
2018-12-21T19:56:21.879Z,97657.28
2018-12-21T19:58:52.617Z,97662.14
2018-12-21T20:01:23.595Z,97657.53
2018-12-21T20:03:54.590Z,97654.07
2018-12-21T20:06:25.189Z,97654.56
2018-12-21T20:08:56.470Z,97661.81
2018-12-21T20:11:27.102Z,97667.73
2018-12-21T20:13:57.733Z,97659.66
2018-12-21T20:16:29.666Z,97663.33
2018-12-21T20:19:00.290Z,97670.92
2018-12-21T20:21:30.942Z,97670.56
2018-12-21T20:24:01.687Z,97671.66
2018-12-21T20:26:32.611Z,97664.03
2018-12-21T20:29:03.439Z,97666.52
2018-12-21T20:31:34.068Z,97671.63
2018-12-21T20:34:04.819Z,97659.63
2018-12-21T20:36:35.510Z,97675.19
2018-12-21T20:39:13.677Z,97682.08
2018-12-21T20:41:44.731Z,97676.25
2018-12-21T20:44:15.410Z,97681.26
2018-12-21T20:46:46.010Z,97676.97
2018-12-21T20:49:16.785Z,97679.47
2018-12-21T20:51:47.498Z,97681.38
2018-12-21T20:54:18.584Z,97690.41
2018-12-21T20:56:53.927Z,97693.34
2018-12-21T20:59:26.079Z,97698.33
2018-12-21T21:01:56.778Z,97699.52
2018-12-21T21:04:27.435Z,97700.00
2018-12-21T21:06:58.042Z,97708.29
2018-12-21T21:09:29.218Z,97704.13
2018-12-21T21:11:59.850Z,97710.55
2018-12-21T21:14:30.879Z,97714.59
2018-12-21T21:17:01.529Z,97719.56
2018-12-21T21:19:37.601Z,97706.27
2018-12-21T21:22:08.299Z,97702.38
2018-12-21T21:24:38.961Z,97697.48
2018-12-21T21:27:09.636Z,97703.19
2018-12-21T21:29:40.277Z,97701.88
2018-12-21T21:32:11.060Z,97695.35
2018-12-21T21:34:41.946Z,97704.95
2018-12-21T21:37:12.793Z,97699.61
2018-12-21T21:39:43.486Z,97707.35
2018-12-21T21:42:14.711Z,97726.70
2018-12-21T21:44:45.408Z,97725.91
2018-12-21T21:47:16.281Z,97738.60
2018-12-21T21:49:46.885Z,97729.45
2018-12-21T21:52:17.895Z,97742.51
2018-12-21T21:54:48.513Z,97738.95
2018-12-21T21:57:19.115Z,97746.42
2018-12-21T21:59:49.693Z,97745.73
2018-12-21T22:02:20.826Z,97757.70
2018-12-21T22:04:51.406Z,97753.19
2018-12-21T22:07:23.054Z,97754.14
2018-12-21T22:09:53.638Z,97753.66
2018-12-21T22:12:24.390Z,97761.63
2018-12-21T22:14:55.242Z,97759.48
2018-12-21T22:17:26.290Z,97766.84
2018-12-21T22:19:56.919Z,97773.36
2018-12-21T22:22:27.675Z,97762.91
2018-12-21T22:24:58.650Z,97777.42
2018-12-21T22:27:29.345Z,97780.51
2018-12-21T22:30:01.155Z,97763.78
2018-12-21T22:32:31.819Z,97770.30
2018-12-21T22:35:03.117Z,97766.27
2018-12-21T22:37:33.851Z,97771.62
2018-12-21T22:40:06.315Z,97769.92
2018-12-21T22:42:36.963Z,97764.83
2018-12-21T22:45:09.289Z,97757.11
2018-12-21T22:47:39.917Z,97762.22
2018-12-21T22:50:11.510Z,97759.97
2018-12-21T22:52:42.118Z,97759.00
2018-12-21T22:55:12.765Z,97773.15
2018-12-21T22:57:43.469Z,97764.95
2018-12-21T23:00:20.737Z,97757.38
2018-12-21T23:02:51.402Z,97758.20
2018-12-21T23:05:22.287Z,97758.07
2018-12-21T23:07:52.899Z,97763.30
2018-12-21T23:10:23.590Z,97766.84
2018-12-21T23:12:54.222Z,97766.61
2018-12-21T23:15:24.866Z,97758.77
2018-12-21T23:17:55.919Z,97765.89
2018-12-21T23:20:26.661Z,97770.52
2018-12-21T23:22:57.294Z,97766.84
2018-12-21T23:25:27.934Z,97757.95
2018-12-21T23:28:05.034Z,97760.19
2018-12-21T23:30:31.142Z,97761.74
2018-12-21T23:33:01.755Z,97763.62
2018-12-21T23:35:32.670Z,97751.41
2018-12-21T23:38:03.238Z,97752.23
2018-12-21T23:40:33.881Z,97751.66
2018-12-21T23:43:04.510Z,97745.26
2018-12-21T23:45:36.098Z,97755.70
2018-12-21T23:48:06.738Z,97752.13
2018-12-21T23:50:37.410Z,97753.80
2018-12-21T23:53:08.013Z,97756.64
2018-12-21T23:55:38.642Z,97755.34
2018-12-21T23:58:13.634Z,97762.19
